Terminal Aerodrome Forecast
Issued by NWS Burlington, VT

Home | Current Version | Previous Version | Text Only | Print | Product List | Glossary On
Versions: 1 2 3 4 5 6 7 8 9 10 11 12 13
000
FTUS41 KBTV 071731
TAFBTV
TAF
KBTV 071731Z 0718/0818 19010G18KT P6SM VCSH SCT050 BKN080
     FM072300 19007KT P6SM FEW050 SCT200
     FM080500 19007KT 5SM -SHRA BR OVC040
     FM080900 28007KT P6SM BKN025 OVC040
     FM081300 33009KT P6SM FEW200=

USA.gov is the U.S. government's official web portal to all federal, state and local government web resources and services.